NCAR-RAP Real-Time Weather Data

Output produced by METARs form (08 May 2021  02:05 UTC)
found at http://weather.rap.ucar.edu/surface/
 
KJAX 080056Z 29005KT 10SM CLR 18/07 A3000 RMK AO2 SLP160 T01780072
KJAX 072356Z 30006KT 10SM CLR 22/06 A2998 RMK AO2 SLP151 T02220061 10272 20217 53005
KJAX 072256Z 31008KT 10SM CLR 25/05 A2997 RMK AO2 SLP149 T02500050
KJAX 072156Z 29012G21KT 10SM CLR 26/04 A2996 RMK AO2 SLP146 T02610044
KJAX 072056Z 30015G25KT 10SM CLR 27/04 A2996 RMK AO2 PK WND 28030/2043 SLP146 T02670039 56015
KJAX 071956Z 28014G26KT 10SM CLR 27/06 A2997 RMK AO2 PK WND 28026/1952 SLP149 T02670056
KJAX 071856Z 29011G23KT 10SM CLR 27/05 A2999 RMK AO2 PK WND 28028/1835 SLP155 T02670050
KJAX 071756Z 30013G19KT 10SM CLR 26/07 A3000 RMK AO2 SLP161 T02610072 10261 20156 58010
KJAX 071656Z 29013G24KT 10SM CLR 25/07 A3002 RMK AO2 SLP168 T02500072
KJAX 071556Z 29014G22KT 10SM CLR 24/06 A3003 RMK AO2 PK WND 29027/1523 SLP170 T02390056
KJAX 071456Z 31013G25KT 10SM CLR 23/07 A3003 RMK AO2 SLP171 T02280072 51005
KJAX 071356Z 32013G17KT 10SM CLR 21/09 A3003 RMK AO2 SLP171 T02060094
KJAX 071256Z 31006KT 10SM CLR 19/11 A3003 RMK AO2 SLP169 T01890106
KJAX 071156Z 28007KT 10SM CLR 16/12 A3002 RMK AO2 SLP166 70001 T01560117 10172 20133 53013
KJAX 071056Z 29006KT 10SM CLR 13/11 A3000 RMK AO2 SLP158 T01330111